createdAt,value
2022-09-06T04:01:42.612Z,21.49
2022-09-06T04:05:46.333Z,21.23
2022-09-06T04:09:49.120Z,21.39
2022-09-06T04:13:51.899Z,21.13
2022-09-06T04:17:55.909Z,20.96
2022-09-06T04:21:58.601Z,20.86
2022-09-06T04:26:01.618Z,20.87
2022-09-06T04:30:05.316Z,20.86
2022-09-06T04:34:09.314Z,20.87
2022-09-06T04:38:12.115Z,20.96
2022-09-06T04:42:15.698Z,21.15
2022-09-06T04:46:21.976Z,21.19
2022-09-06T04:50:26.315Z,21.23
2022-09-06T04:54:43.414Z,21.22
2022-09-06T04:58:47.489Z,21.31
2022-09-06T05:02:56.328Z,20.92
2022-09-06T05:07:05.098Z,20.95
2022-09-06T05:11:09.193Z,20.99
2022-09-06T05:15:12.331Z,20.92
2022-09-06T05:19:15.718Z,21.09
2022-09-06T05:23:19.806Z,21.01
2022-09-06T05:27:22.474Z,21.27
2022-09-06T05:31:28.544Z,21.35
2022-09-06T05:35:31.272Z,21.38
2022-09-06T05:39:35.381Z,21.43
2022-09-06T05:43:38.077Z,21.71
2022-09-06T05:47:41.148Z,21.90
2022-09-06T05:51:43.842Z,21.97
2022-09-06T05:55:47.918Z,21.90
2022-09-06T05:59:50.830Z,22.16
2022-09-06T06:03:55.357Z,22.20
2022-09-06T06:07:59.706Z,22.34
2022-09-06T06:12:04.213Z,22.32
2022-09-06T06:16:07.666Z,22.86
2022-09-06T06:20:10.905Z,23.18
2022-09-06T06:24:13.655Z,23.56
2022-09-06T06:28:17.667Z,23.61
2022-09-06T06:32:20.347Z,23.69
2022-09-06T06:36:24.799Z,23.79
2022-09-06T06:40:27.649Z,23.90
2022-09-06T06:44:31.697Z,23.77
2022-09-06T06:48:34.476Z,23.63
2022-09-06T06:52:37.158Z,23.55
2022-09-06T06:56:42.161Z,23.48
2022-09-06T07:00:46.927Z,23.52
2022-09-06T07:04:49.663Z,23.66
2022-09-06T07:08:52.358Z,23.98
2022-09-06T07:12:55.571Z,24.12
2022-09-06T07:16:59.585Z,24.50
2022-09-06T07:25:25.692Z,25.50
2022-09-06T07:29:28.416Z,25.87
2022-09-06T07:33:32.482Z,26.07
2022-09-06T07:37:35.435Z,26.49
2022-09-06T07:41:38.139Z,27.05
2022-09-06T07:45:40.812Z,27.27
2022-09-06T07:54:29.836Z,27.05
2022-09-06T07:58:34.698Z,27.20
2022-09-06T08:02:37.394Z,27.06
2022-09-06T08:11:07.546Z,26.93
2022-09-06T08:15:11.070Z,27.39
2022-09-06T08:19:13.771Z,27.45
2022-09-06T08:23:17.843Z,27.26
2022-09-06T08:27:20.502Z,27.21
2022-09-06T08:31:23.476Z,27.04
2022-09-06T08:35:26.190Z,26.93
2022-09-06T08:39:30.264Z,27.27
2022-09-06T08:43:33.973Z,27.15
2022-09-06T08:47:37.662Z,27.08
2022-09-06T08:52:05.897Z,27.58
2022-09-06T08:56:16.889Z,27.90
2022-09-06T09:00:21.259Z,28.25
2022-09-06T09:04:27.545Z,28.26
2022-09-06T09:08:38.064Z,27.82
2022-09-06T09:12:46.775Z,27.72
2022-09-06T09:16:51.772Z,27.18
2022-09-06T09:20:54.525Z,27.32
2022-09-06T09:25:03.070Z,27.35
2022-09-06T09:29:10.032Z,27.31
2022-09-06T09:33:23.575Z,27.22
2022-09-06T09:41:51.694Z,28.00
2022-09-06T09:46:30.729Z,28.64
2022-09-06T09:50:35.682Z,29.29
2022-09-06T09:54:40.443Z,30.03
2022-09-06T09:58:43.851Z,29.90
2022-09-06T10:02:47.988Z,30.04
2022-09-06T10:11:14.904Z,28.46
2022-09-06T10:15:34.477Z,28.64
2022-09-06T10:19:46.328Z,28.93
2022-09-06T10:24:28.098Z,28.78
2022-09-06T10:28:34.453Z,28.98
2022-09-06T10:32:42.641Z,28.91
2022-09-06T10:36:55.147Z,28.99
2022-09-06T10:41:10.413Z,28.99
2022-09-06T10:45:22.235Z,28.45
2022-09-06T10:49:25.100Z,28.75
2022-09-06T10:53:37.327Z,29.07
2022-09-06T11:02:19.562Z,29.66
2022-09-06T11:06:28.770Z,29.64
2022-09-06T11:10:35.346Z,29.96
2022-09-06T11:14:40.465Z,29.95
2022-09-06T11:18:49.161Z,30.12
2022-09-06T11:23:18.338Z,30.10
2022-09-06T11:27:34.903Z,30.28
2022-09-06T11:36:21.496Z,30.50
2022-09-06T11:40:28.476Z,31.02
2022-09-06T11:44:55.548Z,31.07
2022-09-06T11:49:03.401Z,31.06
2022-09-06T11:53:17.434Z,31.33
2022-09-06T11:57:23.570Z,31.28
2022-09-06T12:01:41.971Z,31.26
2022-09-06T12:06:16.113Z,31.54
2022-09-06T12:10:58.104Z,31.57
2022-09-06T12:15:29.023Z,30.97
2022-09-06T12:19:47.681Z,31.42
2022-09-06T12:23:50.332Z,31.58
2022-09-06T12:27:55.342Z,31.48
2022-09-06T12:32:01.569Z,31.94
2022-09-06T12:36:17.752Z,32.11
2022-09-06T12:40:21.723Z,32.50
2022-09-06T12:44:32.801Z,32.37
2022-09-06T12:48:41.234Z,32.03
2022-09-06T12:52:50.556Z,32.00
2022-09-06T12:56:54.403Z,32.13
2022-09-06T13:01:04.515Z,31.90
2022-09-06T13:05:11.112Z,32.26
2022-09-06T13:09:18.831Z,31.97
2022-09-06T13:13:24.194Z,32.39
2022-09-06T13:17:29.835Z,32.83
2022-09-06T13:21:34.196Z,32.43
2022-09-06T13:25:48.731Z,32.51
2022-09-06T13:29:57.782Z,32.68
2022-09-06T13:34:01.030Z,32.33
2022-09-06T13:38:30.739Z,32.38
2022-09-06T13:42:36.669Z,32.70
2022-09-06T13:46:39.622Z,32.98
2022-09-06T13:50:42.725Z,33.12
2022-09-06T13:54:45.966Z,32.79
2022-09-06T13:58:50.013Z,33.08
2022-09-06T14:02:55.419Z,33.44
2022-09-06T14:06:59.392Z,33.58
2022-09-06T14:11:05.031Z,33.57
2022-09-06T14:15:09.941Z,33.90
2022-09-06T14:19:13.138Z,33.97
2022-09-06T14:23:16.164Z,33.97
2022-09-06T14:27:20.206Z,34.39
2022-09-06T14:31:26.421Z,34.81
2022-09-06T14:35:29.860Z,34.88
2022-09-06T14:39:32.864Z,34.89
2022-09-06T14:43:36.619Z,35.44
2022-09-06T14:47:40.659Z,34.89
2022-09-06T14:51:43.416Z,35.41
2022-09-06T14:55:46.203Z,35.47
2022-09-06T14:59:48.938Z,35.58
2022-09-06T15:03:55.844Z,35.22
2022-09-06T15:07:58.557Z,35.33
2022-09-06T15:12:01.571Z,35.72
2022-09-06T15:16:04.637Z,35.99
2022-09-06T15:20:09.487Z,36.22
2022-09-06T15:24:12.502Z,36.33
2022-09-06T15:28:16.133Z,36.22
2022-09-06T15:32:18.820Z,36.29
2022-09-06T15:36:22.957Z,35.56
2022-09-06T15:40:27.795Z,35.64
2022-09-06T15:44:30.555Z,35.82
2022-09-06T15:48:41.874Z,36.03
2022-09-06T15:52:45.974Z,36.12
2022-09-06T15:56:49.215Z,36.08
2022-09-06T16:01:02.070Z,36.28
2022-09-06T16:05:05.867Z,36.55
2022-09-06T16:09:14.080Z,37.14
2022-09-06T16:13:17.641Z,36.73
2022-09-06T16:17:22.360Z,37.01
2022-09-06T16:21:28.234Z,37.23
2022-09-06T16:25:32.629Z,36.98
2022-09-06T16:29:35.410Z,36.41
2022-09-06T16:33:40.192Z,35.31
2022-09-06T16:37:43.045Z,35.12
2022-09-06T16:41:48.039Z,35.12
2022-09-06T16:45:57.444Z,35.01
2022-09-06T16:50:00.582Z,35.11
2022-09-06T16:54:04.148Z,35.16
2022-09-06T16:58:08.308Z,35.21
2022-09-06T17:02:11.147Z,34.72
2022-09-06T17:06:14.651Z,34.41
2022-09-06T17:10:21.047Z,34.43
2022-09-06T17:14:25.479Z,34.09
2022-09-06T17:18:28.292Z,33.48
2022-09-06T17:22:31.021Z,33.25
2022-09-06T17:26:35.637Z,32.59
2022-09-06T17:30:46.517Z,32.09
2022-09-06T17:34:49.268Z,31.79
2022-09-06T17:38:53.844Z,31.61
2022-09-06T17:42:56.803Z,31.21
2022-09-06T17:47:13.905Z,30.98
2022-09-06T17:51:17.990Z,30.69
2022-09-06T17:55:20.816Z,30.25
2022-09-06T17:59:23.899Z,29.99
2022-09-06T18:03:28.155Z,29.69
2022-09-06T18:07:31.030Z,29.55
2022-09-06T18:11:34.974Z,29.42
2022-09-06T18:16:04.346Z,29.23
2022-09-06T18:20:10.477Z,29.02
2022-09-06T18:24:14.814Z,28.83
2022-09-06T18:28:17.655Z,28.85
2022-09-06T18:32:21.840Z,28.71
2022-09-06T18:36:31.188Z,28.40
2022-09-06T18:40:34.659Z,28.05
2022-09-06T18:44:37.525Z,27.95
2022-09-06T18:48:41.926Z,27.92
2022-09-06T18:52:46.010Z,27.67
2022-09-06T18:56:50.012Z,27.40
2022-09-06T19:00:53.064Z,27.44
2022-09-06T19:04:56.018Z,27.43
2022-09-06T19:09:01.638Z,27.38
2022-09-06T19:13:06.616Z,27.42
2022-09-06T19:17:09.842Z,27.26
2022-09-06T19:21:14.376Z,26.97
2022-09-06T19:25:19.412Z,26.94
2022-09-06T19:29:22.156Z,26.53
2022-09-06T19:33:25.183Z,26.56
2022-09-06T19:37:28.583Z,26.39
2022-09-06T19:41:34.394Z,26.42
2022-09-06T19:45:39.250Z,26.27
2022-09-06T19:49:42.374Z,25.98
2022-09-06T19:53:49.515Z,25.90
2022-09-06T19:57:53.804Z,25.81
2022-09-06T20:01:56.499Z,25.87
2022-09-06T20:06:02.147Z,25.87
2022-09-06T20:10:06.503Z,25.78
2022-09-06T20:14:11.167Z,25.72
2022-09-06T20:18:14.758Z,25.53
2022-09-06T20:22:17.527Z,25.40
2022-09-06T20:26:22.858Z,25.28
2022-09-06T20:30:29.425Z,25.31
2022-09-06T20:34:32.297Z,25.21
2022-09-06T20:38:37.297Z,25.08
2022-09-06T20:42:42.219Z,24.96
2022-09-06T20:46:46.592Z,25.13
2022-09-06T20:50:57.767Z,24.97
2022-09-06T20:55:00.549Z,25.00
2022-09-06T20:59:05.448Z,24.98
